Time;durP1;ratioP1;P1;durP2;ratioP2;P2;SDS_P1;SDS_P2;PMS_P1;PMS_P2;Temp;Humidity;BMP_temperature;BMP_pressure;BME280_temperature;BME280_humidity;BME280_pressure;Samples;Min_cycle;Max_cycle;Signal;HPM_P1;HPM_P2
2024/01/04 00:00:10;;;;;;;0.10;0.10;;;;;;;;;;5124496;28;20238;-74
2024/01/04 00:02:37;;;;;;;0.10;0.10;;;;;;;;;;5112444;28;20474;-76
2024/01/04 00:05:05;;;;;;;0.10;0.10;;;;;;;;;;5124222;28;20399;-73
2024/01/04 00:07:31;;;;;;;0.20;0.20;;;;;;;;;;5112335;28;20277;-73
2024/01/04 00:09:58;;;;;;;0.10;0.10;;;;;;;;;;5124083;28;20204;-73
2024/01/04 00:12:24;;;;;;;0.10;0.10;;;;;;;;;;5112366;28;20491;-73
2024/01/04 00:14:51;;;;;;;0.10;0.10;;;;;;;;;;5124215;28;20203;-73
2024/01/04 00:17:18;;;;;;;0.10;0.10;;;;;;;;;;5112341;28;20235;-73
2024/01/04 00:19:44;;;;;;;0.10;0.10;;;;;;;;;;5124009;28;20213;-73
2024/01/04 00:22:12;;;;;;;0.10;0.10;;;;;;;;;;5112413;28;20303;-73
2024/01/04 00:24:38;;;;;;;0.10;0.10;;;;;;;;;;5123889;28;20281;-73
2024/01/04 00:27:05;;;;;;;0.10;0.10;;;;;;;;;;5112332;28;20253;-74
2024/01/04 00:29:31;;;;;;;0.10;0.10;;;;;;;;;;5127824;28;20216;-73
2024/01/04 00:31:57;;;;;;;0.10;0.10;;;;;;;;;;5116534;28;20325;-74
2024/01/04 00:34:24;;;;;;;0.10;0.10;;;;;;;;;;5127699;28;20199;-73
2024/01/04 00:36:50;;;;;;;0.10;0.10;;;;;;;;;;5116366;28;20318;-73
2024/01/04 00:39:19;;;;;;;0.10;0.10;;;;;;;;;;5127503;28;20250;-74
2024/01/04 00:41:45;;;;;;;0.10;0.10;;;;;;;;;;5116480;28;20237;-73
2024/01/04 00:44:11;;;;;;;0.10;0.10;;;;;;;;;;5127317;28;20229;-74
2024/01/04 00:46:38;;;;;;;0.10;0.10;;;;;;;;;;5116410;28;20242;-73
2024/01/04 00:49:05;;;;;;;0.20;0.20;;;;;;;;;;5127182;28;20226;-74
2024/01/04 00:51:31;;;;;;;0.10;0.10;;;;;;;;;;5116404;28;20237;-73
2024/01/04 00:53:57;;;;;;;0.10;0.10;;;;;;;;;;5127293;28;20264;-73
2024/01/04 00:56:31;;;;;;;0.20;0.20;;;;;;;;;;5116257;28;20249;-76
2024/01/04 00:58:57;;;;;;;0.10;0.10;;;;;;;;;;5127280;28;20465;-78
2024/01/04 01:01:23;;;;;;;0.10;0.10;;;;;;;;;;5116328;28;20480;-73
2024/01/04 01:03:51;;;;;;;0.10;0.10;;;;;;;;;;5126880;28;20278;-73
2024/01/04 01:06:17;;;;;;;0.10;0.10;;;;;;;;;;5116172;28;20244;-73
2024/01/04 01:08:44;;;;;;;0.10;0.10;;;;;;;;;;5126997;28;20223;-73
2024/01/04 01:11:10;;;;;;;0.20;0.20;;;;;;;;;;5116050;28;20286;-73
2024/01/04 01:13:38;;;;;;;0.10;0.10;;;;;;;;;;5126647;28;20209;-73
2024/01/04 01:16:04;;;;;;;0.10;0.10;;;;;;;;;;5116271;28;20294;-74
2024/01/04 01:18:31;;;;;;;0.10;0.10;;;;;;;;;;5126372;28;20558;-73
2024/01/04 01:20:58;;;;;;;0.20;0.20;;;;;;;;;;5116232;28;20238;-73
2024/01/04 01:23:24;;;;;;;0.10;0.10;;;;;;;;;;5126528;28;20273;-72
2024/01/04 01:25:51;;;;;;;0.10;0.10;;;;;;;;;;5115861;28;20237;-73
2024/01/04 01:28:17;;;;;;;0.10;0.10;;;;;;;;;;5126227;28;20234;-74
2024/01/04 01:30:45;;;;;;;0.13;0.13;;;;;;;;;;5116221;28;20239;-73
2024/01/04 01:33:12;;;;;;;0.10;0.10;;;;;;;;;;5125985;28;20333;-75
2024/01/04 01:35:38;;;;;;;0.10;0.10;;;;;;;;;;5115951;28;20246;-73
2024/01/04 01:38:05;;;;;;;0.10;0.10;;;;;;;;;;5125214;28;20204;-73
2024/01/04 01:40:31;;;;;;;0.10;0.10;;;;;;;;;;5115975;28;20293;-73
2024/01/04 01:42:59;;;;;;;0.10;0.10;;;;;;;;;;5125933;28;20183;-73
2024/01/04 01:45:25;;;;;;;0.10;0.10;;;;;;;;;;5115831;28;20200;-73
2024/01/04 01:47:54;;;;;;;0.20;0.20;;;;;;;;;;5125556;28;20216;-73
2024/01/04 01:50:21;;;;;;;0.10;0.10;;;;;;;;;;5115525;28;20214;-73
2024/01/04 01:52:47;;;;;;;0.10;0.10;;;;;;;;;;5125471;28;20196;-75
2024/01/04 01:55:14;;;;;;;0.13;0.13;;;;;;;;;;5115834;28;20220;-73
2024/01/04 01:57:41;;;;;;;0.10;0.10;;;;;;;;;;5125430;28;20194;-73
2024/01/04 02:00:09;;;;;;;0.10;0.10;;;;;;;;;;5126359;28;20204;-73
2024/01/04 02:02:36;;;;;;;0.20;0.20;;;;;;;;;;5097509;28;20229;-73
2024/01/04 02:05:04;;;;;;;0.10;0.10;;;;;;;;;;5126326;28;20218;-73
2024/01/04 02:07:31;;;;;;;0.10;0.10;;;;;;;;;;5114491;28;20252;-73
2024/01/04 02:09:57;;;;;;;0.10;0.10;;;;;;;;;;5126297;28;20276;-73
2024/01/04 02:12:24;;;;;;;0.10;0.10;;;;;;;;;;5114685;28;20245;-73
2024/01/04 02:14:54;;;;;;;0.10;0.10;;;;;;;;;;5126255;28;20390;-73
2024/01/04 02:17:20;;;;;;;0.10;0.10;;;;;;;;;;5114366;28;20481;-73
2024/01/04 02:19:47;;;;;;;0.10;0.10;;;;;;;;;;5126014;28;20240;-73
2024/01/04 02:22:17;;;;;;;0.10;0.10;;;;;;;;;;5114292;28;20461;-73
2024/01/04 02:24:45;;;;;;;0.10;0.10;;;;;;;;;;5125808;28;20212;-73
2024/01/04 02:27:12;;;;;;;0.20;0.20;;;;;;;;;;5114088;28;20478;-73
2024/01/04 02:29:38;;;;;;;0.10;0.10;;;;;;;;;;5125730;28;20231;-73
2024/01/04 02:32:05;;;;;;;0.10;0.10;;;;;;;;;;5114258;28;20422;-73
2024/01/04 02:34:32;;;;;;;0.20;0.20;;;;;;;;;;5125743;28;20215;-73
2024/01/04 02:36:58;;;;;;;0.10;0.10;;;;;;;;;;5114034;28;20238;-73
2024/01/04 02:39:25;;;;;;;0.10;0.10;;;;;;;;;;5125080;28;20194;-73
2024/01/04 02:41:52;;;;;;;0.10;0.10;;;;;;;;;;5114044;28;20297;-73
2024/01/04 02:44:19;;;;;;;0.17;0.17;;;;;;;;;;5125163;28;20206;-73
2024/01/04 02:46:46;;;;;;;0.10;0.10;;;;;;;;;;5114119;28;20238;-73
2024/01/04 02:49:12;;;;;;;0.10;0.10;;;;;;;;;;5124782;28;20229;-73
2024/01/04 02:51:39;;;;;;;0.10;0.10;;;;;;;;;;5113091;28;20238;-74
2024/01/04 02:54:05;;;;;;;0.20;0.20;;;;;;;;;;5124897;28;20194;-73
2024/01/04 02:56:31;;;;;;;0.10;0.10;;;;;;;;;;5113673;28;20253;-73
2024/01/04 02:58:59;;;;;;;0.10;0.10;;;;;;;;;;5124592;28;20200;-74
2024/01/04 03:01:26;;;;;;;0.10;0.10;;;;;;;;;;5113924;28;20297;-73
2024/01/04 03:03:53;;;;;;;0.10;0.10;;;;;;;;;;5124443;28;20247;-74
2024/01/04 03:06:22;;;;;;;0.10;0.10;;;;;;;;;;5113652;28;20238;-73
2024/01/04 03:08:48;;;;;;;0.10;0.10;;;;;;;;;;5124306;28;20226;-73
2024/01/04 03:11:15;;;;;;;0.10;0.10;;;;;;;;;;5113532;28;20254;-73
2024/01/04 03:13:41;;;;;;;0.10;0.10;;;;;;;;;;5124284;28;20203;-73
2024/01/04 03:16:10;;;;;;;0.10;0.10;;;;;;;;;;5113869;28;20244;-73
2024/01/04 03:18:36;;;;;;;0.10;0.10;;;;;;;;;;5124162;28;20239;-74
2024/01/04 03:21:03;;;;;;;0.10;0.10;;;;;;;;;;5113813;28;20383;-73
2024/01/04 03:23:29;;;;;;;0.10;0.10;;;;;;;;;;5124112;28;20209;-73
2024/01/04 03:25:56;;;;;;;0.10;0.10;;;;;;;;;;5113851;28;20238;-73
2024/01/04 03:28:22;;;;;;;0.10;0.10;;;;;;;;;;5124190;28;20413;-73
2024/01/04 03:30:49;;;;;;;0.10;0.10;;;;;;;;;;5113520;28;20238;-73
2024/01/04 03:33:16;;;;;;;0.10;0.10;;;;;;;;;;5124021;28;20243;-73
2024/01/04 03:35:43;;;;;;;0.10;0.10;;;;;;;;;;5113778;28;20237;-73
2024/01/04 03:38:09;;;;;;;0.10;0.10;;;;;;;;;;5124012;28;20388;-73
2024/01/04 03:40:35;;;;;;;0.10;0.10;;;;;;;;;;5113591;28;20239;-73
2024/01/04 03:43:03;;;;;;;0.10;0.10;;;;;;;;;;5123735;28;20184;-73
2024/01/04 03:45:30;;;;;;;0.10;0.10;;;;;;;;;;5113712;28;20243;-73
2024/01/04 03:47:57;;;;;;;0.10;0.10;;;;;;;;;;5123323;28;20202;-73
2024/01/04 03:50:24;;;;;;;0.10;0.10;;;;;;;;;;5113753;28;20221;-73
2024/01/04 03:52:51;;;;;;;0.20;0.20;;;;;;;;;;5123327;28;20389;-73
2024/01/04 03:55:18;;;;;;;0.10;0.10;;;;;;;;;;5113704;28;20210;-74
2024/01/04 03:57:44;;;;;;;0.10;0.10;;;;;;;;;;5123275;28;20539;-73
2024/01/04 04:00:11;;;;;;;0.20;0.20;;;;;;;;;;5114921;28;20243;-73
2024/01/04 04:02:38;;;;;;;0.10;0.10;;;;;;;;;;5123015;28;20222;-73
2024/01/04 04:05:04;;;;;;;0.10;0.10;;;;;;;;;;5124085;28;20225;-73
2024/01/04 04:07:32;;;;;;;0.10;0.10;;;;;;;;;;5112518;28;20478;-73
2024/01/04 04:09:58;;;;;;;0.20;0.20;;;;;;;;;;5124222;28;20257;-73
2024/01/04 04:12:25;;;;;;;0.10;0.10;;;;;;;;;;5112402;28;20252;-72
2024/01/04 04:14:51;;;;;;;0.10;0.10;;;;;;;;;;5124031;28;20209;-73
2024/01/04 04:17:20;;;;;;;0.20;0.20;;;;;;;;;;5112389;28;20241;-73
2024/01/04 04:19:46;;;;;;;0.10;0.10;;;;;;;;;;5123870;28;20205;-73
2024/01/04 04:22:13;;;;;;;0.10;0.10;;;;;;;;;;5112294;28;20261;-73
2024/01/04 04:24:40;;;;;;;0.10;0.10;;;;;;;;;;5123923;28;20202;-73
2024/01/04 04:27:07;;;;;;;0.10;0.10;;;;;;;;;;5112382;28;20437;-73
2024/01/04 04:29:33;;;;;;;0.10;0.10;;;;;;;;;;5123849;28;20290;-73
2024/01/04 04:32:00;;;;;;;0.10;0.10;;;;;;;;;;5112627;28;20239;-73
2024/01/04 04:34:26;;;;;;;0.10;0.10;;;;;;;;;;5123619;28;20267;-73
2024/01/04 04:36:52;;;;;;;0.10;0.10;;;;;;;;;;5112377;28;20469;-73
2024/01/04 04:39:19;;;;;;;0.10;0.10;;;;;;;;;;5123851;28;20381;-74
2024/01/04 04:41:47;;;;;;;0.10;0.10;;;;;;;;;;5112300;28;20303;-77
2024/01/04 04:44:13;;;;;;;0.10;0.10;;;;;;;;;;5123443;28;20251;-73
2024/01/04 04:46:39;;;;;;;0.10;0.10;;;;;;;;;;5112454;28;20558;-73
2024/01/04 04:49:07;;;;;;;0.13;0.13;;;;;;;;;;5123530;28;20552;-73
2024/01/04 04:51:33;;;;;;;0.13;0.13;;;;;;;;;;5112227;28;20242;-73
2024/01/04 04:54:00;;;;;;;0.10;0.10;;;;;;;;;;5123582;28;20278;-73
2024/01/04 04:56:26;;;;;;;0.10;0.10;;;;;;;;;;5112120;28;20241;-73
2024/01/04 04:58:54;;;;;;;0.10;0.10;;;;;;;;;;5123073;28;20208;-74
2024/01/04 05:01:20;;;;;;;0.10;0.10;;;;;;;;;;5112229;28;20237;-73
2024/01/04 05:03:47;;;;;;;0.10;0.10;;;;;;;;;;5122992;28;20274;-74
2024/01/04 05:06:13;;;;;;;0.10;0.10;;;;;;;;;;5112351;28;20247;-74
2024/01/04 05:08:40;;;;;;;0.13;0.13;;;;;;;;;;5123058;28;20249;-73
2024/01/04 05:11:06;;;;;;;0.20;0.20;;;;;;;;;;5112326;28;20446;-74
2024/01/04 05:13:33;;;;;;;0.10;0.10;;;;;;;;;;5123744;28;20202;-74
2024/01/04 05:16:01;;;;;;;0.20;0.20;;;;;;;;;;5116381;28;20300;-74
2024/01/04 05:18:27;;;;;;;0.13;0.13;;;;;;;;;;5126573;28;20233;-73
2024/01/04 05:20:58;;;;;;;0.20;0.20;;;;;;;;;;5115384;28;20241;-74
2024/01/04 05:23:24;;;;;;;0.10;0.10;;;;;;;;;;5126382;28;20194;-73
2024/01/04 05:25:51;;;;;;;0.10;0.10;;;;;;;;;;5116194;28;20495;-74
2024/01/04 05:28:20;;;;;;;0.10;0.10;;;;;;;;;;5126507;28;20498;-73
2024/01/04 05:30:46;;;;;;;0.10;0.10;;;;;;;;;;5116066;28;20257;-74
2024/01/04 05:33:14;;;;;;;0.10;0.10;;;;;;;;;;5125931;28;20214;-74
2024/01/04 05:35:41;;;;;;;0.10;0.10;;;;;;;;;;5115665;28;20242;-74
2024/01/04 05:38:07;;;;;;;0.17;0.17;;;;;;;;;;5126033;28;20197;-76
2024/01/04 05:40:33;;;;;;;0.10;0.10;;;;;;;;;;5116207;28;20238;-74
2024/01/04 05:43:00;;;;;;;0.10;0.10;;;;;;;;;;5125843;28;20202;-74
2024/01/04 05:45:26;;;;;;;0.13;0.13;;;;;;;;;;5115852;28;20248;-74
2024/01/04 05:47:53;;;;;;;0.20;0.20;;;;;;;;;;5125930;28;20486;-74
2024/01/04 05:50:22;;;;;;;0.10;0.10;;;;;;;;;;5115834;28;20246;-74
2024/01/04 05:52:48;;;;;;;0.17;0.17;;;;;;;;;;5125654;28;20266;-74
2024/01/04 05:55:15;;;;;;;0.10;0.10;;;;;;;;;;5115681;28;20202;-74
2024/01/04 05:57:42;;;;;;;0.20;0.20;;;;;;;;;;5125735;28;20191;-75
2024/01/04 06:00:09;;;;;;;0.10;0.10;;;;;;;;;;5126451;28;20377;-74
2024/01/04 06:02:36;;;;;;;0.20;0.20;;;;;;;;;;5114437;28;20246;-74
2024/01/04 06:05:04;;;;;;;0.10;0.10;;;;;;;;;;5126477;28;20233;-74
2024/01/04 06:07:32;;;;;;;0.10;0.10;;;;;;;;;;5114550;28;20233;-74
2024/01/04 06:09:58;;;;;;;0.10;0.10;;;;;;;;;;5126225;28;20222;-74
2024/01/04 06:12:25;;;;;;;0.10;0.10;;;;;;;;;;5114671;28;20249;-74
2024/01/04 06:14:51;;;;;;;0.10;0.10;;;;;;;;;;5126340;28;20202;-74
2024/01/04 06:17:17;;;;;;;0.10;0.10;;;;;;;;;;5114344;28;20238;-75
2024/01/04 06:19:44;;;;;;;0.10;0.10;;;;;;;;;;5125972;28;20255;-74
2024/01/04 06:22:10;;;;;;;0.20;0.20;;;;;;;;;;5114299;28;20592;-74
2024/01/04 06:24:38;;;;;;;0.10;0.10;;;;;;;;;;5125837;28;20529;-74
2024/01/04 06:27:05;;;;;;;0.10;0.10;;;;;;;;;;5114462;28;20238;-74
2024/01/04 06:29:32;;;;;;;0.10;0.10;;;;;;;;;;5125592;28;20253;-74
2024/01/04 06:31:58;;;;;;;0.13;0.13;;;;;;;;;;5114100;28;20250;-74
2024/01/04 06:34:25;;;;;;;0.20;0.20;;;;;;;;;;5125534;28;20212;-74
2024/01/04 06:36:51;;;;;;;0.17;0.17;;;;;;;;;;5114032;28;20437;-74
2024/01/04 06:39:18;;;;;;;0.10;0.10;;;;;;;;;;5125385;28;20462;-74
2024/01/04 06:41:45;;;;;;;0.10;0.10;;;;;;;;;;5113809;28;20240;-74
2024/01/04 06:44:12;;;;;;;0.10;0.10;;;;;;;;;;5125426;28;20236;-75
2024/01/04 06:46:38;;;;;;;0.20;0.20;;;;;;;;;;5113973;28;20238;-74
2024/01/04 06:49:05;;;;;;;0.10;0.10;;;;;;;;;;5124847;28;20273;-74
2024/01/04 06:51:32;;;;;;;0.10;0.10;;;;;;;;;;5114181;28;20273;-74
2024/01/04 06:53:58;;;;;;;0.20;0.20;;;;;;;;;;5124847;28;20202;-74
2024/01/04 06:56:24;;;;;;;0.10;0.10;;;;;;;;;;5113906;28;20481;-74
2024/01/04 06:58:52;;;;;;;0.10;0.10;;;;;;;;;;5125101;28;20237;-74
2024/01/04 07:01:19;;;;;;;0.17;0.17;;;;;;;;;;5113862;28;20306;-75
2024/01/04 07:03:46;;;;;;;0.10;0.10;;;;;;;;;;5124681;28;20215;-75
2024/01/04 07:06:12;;;;;;;0.10;0.10;;;;;;;;;;5113835;28;20246;-75
2024/01/04 07:08:39;;;;;;;0.20;0.20;;;;;;;;;;5124377;28;20222;-74
2024/01/04 07:11:06;;;;;;;0.20;0.20;;;;;;;;;;5114044;28;20491;-74
2024/01/04 07:13:34;;;;;;;0.20;0.20;;;;;;;;;;5124621;28;20436;-74
2024/01/04 07:16:03;;;;;;;0.20;0.20;;;;;;;;;;5113887;28;20305;-74
2024/01/04 07:18:29;;;;;;;0.20;0.20;;;;;;;;;;5124442;28;20392;-74
2024/01/04 07:20:56;;;;;;;0.10;0.10;;;;;;;;;;5113788;28;20332;-75
2024/01/04 07:23:22;;;;;;;0.10;0.10;;;;;;;;;;5124296;28;20452;-75
2024/01/04 07:25:49;;;;;;;0.17;0.17;;;;;;;;;;5113904;28;20256;-75
2024/01/04 07:28:16;;;;;;;0.20;0.20;;;;;;;;;;5123901;28;20241;-74
2024/01/04 07:30:43;;;;;;;0.20;0.20;;;;;;;;;;5113566;28;20237;-74
2024/01/04 07:33:12;;;;;;;0.10;0.10;;;;;;;;;;5123716;28;20197;-75
2024/01/04 07:35:39;;;;;;;0.10;0.10;;;;;;;;;;5113641;28;20288;-75
2024/01/04 07:38:05;;;;;;;0.10;0.10;;;;;;;;;;5123273;28;20521;-74
2024/01/04 07:40:31;;;;;;;0.20;0.20;;;;;;;;;;5113445;28;20242;-75
2024/01/04 07:42:58;;;;;;;0.10;0.10;;;;;;;;;;5123503;28;20462;-74
2024/01/04 07:45:24;;;;;;;0.20;0.20;;;;;;;;;;5113862;28;20220;-74
2024/01/04 07:47:52;;;;;;;0.20;0.20;;;;;;;;;;5123492;28;20198;-74
2024/01/04 07:50:20;;;;;;;0.13;0.13;;;;;;;;;;5113669;28;20263;-75
2024/01/04 07:52:47;;;;;;;0.10;0.10;;;;;;;;;;5123248;28;20218;-74
2024/01/04 07:55:13;;;;;;;0.20;0.20;;;;;;;;;;5113946;28;20237;-74
2024/01/04 07:57:40;;;;;;;0.10;0.10;;;;;;;;;;5123083;28;20261;-75
2024/01/04 08:00:08;;;;;;;0.10;0.10;;;;;;;;;;5124329;28;20269;-74
2024/01/04 08:02:35;;;;;;;0.10;0.10;;;;;;;;;;5095537;28;20408;-74
2024/01/04 08:05:01;;;;;;;0.10;0.10;;;;;;;;;;5124266;28;20252;-73
2024/01/04 08:07:30;;;;;;;0.10;0.10;;;;;;;;;;5112452;28;20278;-73
2024/01/04 08:09:57;;;;;;;0.10;0.10;;;;;;;;;;5123462;28;20311;-72
2024/01/04 08:12:23;;;;;;;0.10;0.10;;;;;;;;;;5112468;28;20286;-72
2024/01/04 08:14:50;;;;;;;0.10;0.10;;;;;;;;;;5124340;28;20230;-74
2024/01/04 08:17:16;;;;;;;0.10;0.10;;;;;;;;;;5112378;28;20256;-71
2024/01/04 08:19:42;;;;;;;0.10;0.10;;;;;;;;;;5124337;28;20207;-71
2024/01/04 08:22:09;;;;;;;0.10;0.10;;;;;;;;;;5112136;28;20255;-70
2024/01/04 08:24:37;;;;;;;0.10;0.10;;;;;;;;;;5124036;28;20211;-70
2024/01/04 08:27:03;;;;;;;0.10;0.10;;;;;;;;;;5112632;28;20286;-70
2024/01/04 08:29:30;;;;;;;0.10;0.10;;;;;;;;;;5123640;28;20211;-70
2024/01/04 08:31:56;;;;;;;0.10;0.10;;;;;;;;;;5112565;28;20325;-71
2024/01/04 08:34:23;;;;;;;0.10;0.10;;;;;;;;;;5123811;28;20237;-70
2024/01/04 08:36:49;;;;;;;0.10;0.10;;;;;;;;;;5112528;28;20420;-71
2024/01/04 08:39:15;;;;;;;0.20;0.20;;;;;;;;;;5123598;28;20205;-70
2024/01/04 08:41:43;;;;;;;0.20;0.20;;;;;;;;;;5112596;28;20256;-70
2024/01/04 08:44:09;;;;;;;0.10;0.10;;;;;;;;;;5123602;28;20202;-70
2024/01/04 08:46:37;;;;;;;0.10;0.10;;;;;;;;;;5112371;28;20301;-70
2024/01/04 08:49:04;;;;;;;0.17;0.17;;;;;;;;;;5125560;28;20204;-70
2024/01/04 08:51:31;;;;;;;0.10;0.10;;;;;;;;;;5116405;28;20470;-71
2024/01/04 08:53:57;;;;;;;0.10;0.10;;;;;;;;;;5127560;28;20206;-70
2024/01/04 08:56:24;;;;;;;0.10;0.10;;;;;;;;;;5116334;28;20233;-73
2024/01/04 08:58:51;;;;;;;0.10;0.10;;;;;;;;;;5127504;28;20452;-72
2024/01/04 09:01:19;;;;;;;0.10;0.10;;;;;;;;;;5116488;28;20301;-71
2024/01/04 09:03:46;;;;;;;0.10;0.10;;;;;;;;;;5127047;28;20385;-71
2024/01/04 09:06:12;;;;;;;0.10;0.10;;;;;;;;;;5116360;28;20595;-72
2024/01/04 09:08:38;;;;;;;0.20;0.20;;;;;;;;;;5126956;28;20238;-71
2024/01/04 09:11:05;;;;;;;0.20;0.20;;;;;;;;;;5116332;28;20457;-71
2024/01/04 09:13:31;;;;;;;0.10;0.10;;;;;;;;;;5127116;28;20441;-71
2024/01/04 09:15:59;;;;;;;0.13;0.13;;;;;;;;;;5116279;28;20565;-71
2024/01/04 09:18:25;;;;;;;0.10;0.10;;;;;;;;;;5126666;28;20265;-70
2024/01/04 09:20:52;;;;;;;0.10;0.10;;;;;;;;;;5116264;28;20301;-71
2024/01/04 09:23:18;;;;;;;0.10;0.10;;;;;;;;;;5126730;28;20203;-71
2024/01/04 09:25:48;;;;;;;0.10;0.10;;;;;;;;;;5116398;28;20246;-70
2024/01/04 09:28:14;;;;;;;0.10;0.10;;;;;;;;;;5126561;28;20203;-71
2024/01/04 09:30:40;;;;;;;0.20;0.20;;;;;;;;;;5116239;28;20299;-71
2024/01/04 09:33:08;;;;;;;0.10;0.10;;;;;;;;;;5126247;28;20206;-70
2024/01/04 09:35:35;;;;;;;0.20;0.20;;;;;;;;;;5116126;28;20260;-71
2024/01/04 09:38:01;;;;;;;0.10;0.10;;;;;;;;;;5126356;28;20256;-70
2024/01/04 09:40:28;;;;;;;0.20;0.20;;;;;;;;;;5116014;28;20235;-70
2024/01/04 09:42:55;;;;;;;0.10;0.10;;;;;;;;;;5125940;28;20197;-70
2024/01/04 09:45:22;;;;;;;0.10;0.10;;;;;;;;;;5115818;28;20269;-70
2024/01/04 09:47:50;;;;;;;0.10;0.10;;;;;;;;;;5126030;28;20257;-70
2024/01/04 09:50:18;;;;;;;0.10;0.10;;;;;;;;;;5115870;28;20226;-70
2024/01/04 09:52:45;;;;;;;0.20;0.20;;;;;;;;;;5125627;28;20257;-70
2024/01/04 09:55:12;;;;;;;0.10;0.10;;;;;;;;;;5115994;28;20205;-71
2024/01/04 09:57:39;;;;;;;0.20;0.20;;;;;;;;;;5125674;28;20240;-71
2024/01/04 10:00:08;;;;;;;0.10;0.10;;;;;;;;;;5125720;28;20207;-71
2024/01/04 10:02:37;;;;;;;0.13;0.13;;;;;;;;;;5097808;28;20224;-71
2024/01/04 10:05:05;;;;;;;0.20;0.20;;;;;;;;;;5126276;28;20233;-70
2024/01/04 10:07:34;;;;;;;0.20;0.20;;;;;;;;;;5114805;28;20303;-80
2024/01/04 10:10:04;;;;;;;0.20;0.20;;;;;;;;;;5126308;28;20261;-80
2024/01/04 10:12:32;;;;;;;0.10;0.10;;;;;;;;;;5114784;28;20254;-80
2024/01/04 10:14:59;;;;;;;0.10;0.10;;;;;;;;;;5126419;28;20382;-80
2024/01/04 10:17:25;;;;;;;0.10;0.10;;;;;;;;;;5114919;28;20576;-79
2024/01/04 10:19:51;;;;;;;0.20;0.20;;;;;;;;;;5126145;28;20440;-79
2024/01/04 10:22:21;;;;;;;0.10;0.10;;;;;;;;;;5114513;28;20569;-80
2024/01/04 10:24:51;;;;;;;0.20;0.20;;;;;;;;;;5126281;28;20498;-80
2024/01/04 10:27:17;;;;;;;0.20;0.20;;;;;;;;;;5114466;28;20238;-79
2024/01/04 10:29:46;;;;;;;0.10;0.10;;;;;;;;;;5126188;28;20281;-80
2024/01/04 10:32:13;;;;;;;0.10;0.10;;;;;;;;;;5114343;28;20242;-79
2024/01/04 10:34:41;;;;;;;0.10;0.10;;;;;;;;;;5125999;28;20273;-79
2024/01/04 10:37:09;;;;;;;0.17;0.17;;;;;;;;;;5114245;28;20285;-80
2024/01/04 10:39:36;;;;;;;0.10;0.10;;;;;;;;;;5126127;28;20202;-80
2024/01/04 10:42:05;;;;;;;0.10;0.10;;;;;;;;;;5114557;28;20238;-80
2024/01/04 10:44:33;;;;;;;0.10;0.10;;;;;;;;;;5125880;28;20218;-80
2024/01/04 10:46:59;;;;;;;0.10;0.10;;;;;;;;;;5114327;28;20240;-80
2024/01/04 10:49:26;;;;;;;0.10;0.10;;;;;;;;;;5126095;28;20270;-80
2024/01/04 10:51:53;;;;;;;0.10;0.10;;;;;;;;;;5114165;28;20269;-79
2024/01/04 10:54:20;;;;;;;0.10;0.10;;;;;;;;;;5125829;28;20210;-79
2024/01/04 10:56:47;;;;;;;0.10;0.10;;;;;;;;;;5114307;28;20246;-80
2024/01/04 10:59:17;;;;;;;0.10;0.10;;;;;;;;;;5125628;28;20482;-78
2024/01/04 11:01:44;;;;;;;0.10;0.10;;;;;;;;;;5113756;28;20258;-80
2024/01/04 11:04:11;;;;;;;0.10;0.10;;;;;;;;;;5124921;28;20210;-80
2024/01/04 11:06:40;;;;;;;0.10;0.10;;;;;;;;;;5113805;28;20301;-80
2024/01/04 11:09:06;;;;;;;0.10;0.10;;;;;;;;;;5125119;28;20430;-79
2024/01/04 11:11:34;;;;;;;0.10;0.10;;;;;;;;;;5112966;28;20244;-79
2024/01/04 11:14:01;;;;;;;0.10;0.10;;;;;;;;;;5124931;28;20234;-80
2024/01/04 11:16:40;;;;;;;0.17;0.17;;;;;;;;;;5113785;28;20254;-79
2024/01/04 11:19:13;;;;;;;0.10;0.10;;;;;;;;;;5124951;28;20192;-79
2024/01/04 11:21:46;;;;;;;0.10;0.10;;;;;;;;;;5113470;28;20327;-79
2024/01/04 11:24:19;;;;;;;0.10;0.10;;;;;;;;;;5124857;28;20217;-79
2024/01/04 11:26:52;;;;;;;0.10;0.10;;;;;;;;;;5113426;28;20308;-79
2024/01/04 11:29:19;;;;;;;0.10;0.10;;;;;;;;;;5124640;28;20275;-80
2024/01/04 11:31:46;;;;;;;0.20;0.20;;;;;;;;;;5113332;28;20245;-80
2024/01/04 11:34:14;;;;;;;0.20;0.20;;;;;;;;;;5124880;28;20369;-80
2024/01/04 11:36:40;;;;;;;0.10;0.10;;;;;;;;;;5113383;28;20250;-78
2024/01/04 11:39:06;;;;;;;0.10;0.10;;;;;;;;;;5124981;28;20456;-80
2024/01/04 11:41:34;;;;;;;0.10;0.10;;;;;;;;;;5113482;28;20256;-78
2024/01/04 11:44:00;;;;;;;0.10;0.10;;;;;;;;;;5124471;28;20202;-79
2024/01/04 11:46:27;;;;;;;0.10;0.10;;;;;;;;;;5113976;28;20302;-79
2024/01/04 11:48:55;;;;;;;0.17;0.17;;;;;;;;;;5125463;28;20206;-79
2024/01/04 11:51:34;;;;;;;0.17;0.17;;;;;;;;;;5114088;28;20254;-79
2024/01/04 11:54:01;;;;;;;0.10;0.10;;;;;;;;;;5125168;28;20439;-80
2024/01/04 11:56:28;;;;;;;0.10;0.10;;;;;;;;;;5113928;28;20249;-80
2024/01/04 11:58:54;;;;;;;0.10;0.10;;;;;;;;;;5125171;28;20426;-80
2024/01/04 12:01:22;;;;;;;0.17;0.17;;;;;;;;;;5113654;28;20298;-80
2024/01/04 12:03:49;;;;;;;0.10;0.10;;;;;;;;;;5123846;28;20211;-80
2024/01/04 12:06:17;;;;;;;0.10;0.10;;;;;;;;;;5113708;28;20244;-80
2024/01/04 12:08:44;;;;;;;0.10;0.10;;;;;;;;;;5124379;28;20224;-79
2024/01/04 12:11:10;;;;;;;0.10;0.10;;;;;;;;;;5113893;28;20239;-80
2024/01/04 12:13:37;;;;;;;0.17;0.17;;;;;;;;;;5123724;28;20209;-79
2024/01/04 12:16:05;;;;;;;0.10;0.10;;;;;;;;;;5113068;28;20569;-80
2024/01/04 12:18:32;;;;;;;0.10;0.10;;;;;;;;;;5123857;28;20201;-80
2024/01/04 12:20:59;;;;;;;0.10;0.10;;;;;;;;;;5113393;28;20244;-79
2024/01/04 12:23:27;;;;;;;0.10;0.10;;;;;;;;;;5126437;28;20208;-79
2024/01/04 12:25:54;;;;;;;0.10;0.10;;;;;;;;;;5117551;28;20236;-79
2024/01/04 12:28:20;;;;;;;0.20;0.20;;;;;;;;;;5127517;28;20225;-79
2024/01/04 12:30:47;;;;;;;0.10;0.10;;;;;;;;;;5117575;28;20274;-79
2024/01/04 12:33:13;;;;;;;0.10;0.10;;;;;;;;;;5127655;28;20199;-79
2024/01/04 12:35:40;;;;;;;0.20;0.20;;;;;;;;;;5117487;28;20485;-79
2024/01/04 12:38:06;;;;;;;0.10;0.10;;;;;;;;;;5127852;28;20222;-80
2024/01/04 12:40:40;;;;;;;0.10;0.10;;;;;;;;;;5117224;28;20473;-78
2024/01/04 12:43:08;;;;;;;0.10;0.10;;;;;;;;;;5127521;28;20209;-79
2024/01/04 12:45:34;;;;;;;0.13;0.13;;;;;;;;;;5117274;28;20241;-78
2024/01/04 12:48:01;;;;;;;0.20;0.20;;;;;;;;;;5127210;28;20228;-79
2024/01/04 12:50:29;;;;;;;0.10;0.10;;;;;;;;;;5117473;28;20204;-80
2024/01/04 12:52:55;;;;;;;0.10;0.10;;;;;;;;;;5126665;28;20229;-79
2024/01/04 12:55:21;;;;;;;0.10;0.10;;;;;;;;;;5117194;28;20206;-80
2024/01/04 12:57:49;;;;;;;0.10;0.10;;;;;;;;;;5126831;28;20259;-80
2024/01/04 13:00:16;;;;;;;0.10;0.10;;;;;;;;;;5117164;28;20246;-79
2024/01/04 13:02:42;;;;;;;0.10;0.10;;;;;;;;;;5126684;28;20208;-79
2024/01/04 13:05:09;;;;;;;0.10;0.10;;;;;;;;;;5124661;28;20260;-78
2024/01/04 13:07:36;;;;;;;0.10;0.10;;;;;;;;;;5126256;28;20216;-79
2024/01/04 13:10:02;;;;;;;0.10;0.10;;;;;;;;;;5127994;28;20202;-80
2024/01/04 13:12:30;;;;;;;0.10;0.10;;;;;;;;;;5115499;28;20243;-80
2024/01/04 13:14:57;;;;;;;0.10;0.10;;;;;;;;;;5127524;28;20202;-79
2024/01/04 13:17:27;;;;;;;0.10;0.10;;;;;;;;;;5115539;28;20277;-80
2024/01/04 13:19:54;;;;;;;0.10;0.10;;;;;;;;;;5127831;28;20572;-78
2024/01/04 13:22:20;;;;;;;0.10;0.10;;;;;;;;;;5115499;28;20241;-78
2024/01/04 13:24:46;;;;;;;0.10;0.10;;;;;;;;;;5127248;28;20226;-80
2024/01/04 13:27:13;;;;;;;0.10;0.10;;;;;;;;;;5115329;28;20314;-77
2024/01/04 13:29:39;;;;;;;0.10;0.10;;;;;;;;;;5127095;28;20274;-79
2024/01/04 13:32:07;;;;;;;0.10;0.10;;;;;;;;;;5115253;28;20264;-79
2024/01/04 13:34:34;;;;;;;0.10;0.10;;;;;;;;;;5126071;28;20205;-79
2024/01/04 13:37:00;;;;;;;0.10;0.10;;;;;;;;;;5115335;28;20255;-79
2024/01/04 13:39:27;;;;;;;0.10;0.10;;;;;;;;;;5126878;28;20259;-79
2024/01/04 13:41:54;;;;;;;0.10;0.10;;;;;;;;;;5115155;28;20267;-79
2024/01/04 13:44:20;;;;;;;0.20;0.20;;;;;;;;;;5126886;28;20232;-79
2024/01/04 13:46:47;;;;;;;0.10;0.10;;;;;;;;;;5115181;28;20240;-79
2024/01/04 13:49:15;;;;;;;0.20;0.20;;;;;;;;;;5126735;28;20433;-78
2024/01/04 13:51:42;;;;;;;0.10;0.10;;;;;;;;;;5115122;28;20237;-79
2024/01/04 13:54:10;;;;;;;0.17;0.17;;;;;;;;;;5126370;28;20198;-79
2024/01/04 13:56:37;;;;;;;0.10;0.10;;;;;;;;;;5114835;28;20239;-78
2024/01/04 13:59:03;;;;;;;0.10;0.10;;;;;;;;;;5126819;28;20233;-79
2024/01/04 14:01:30;;;;;;;0.20;0.20;;;;;;;;;;5114984;28;20279;-79
2024/01/04 14:03:56;;;;;;;0.13;0.13;;;;;;;;;;5126093;28;20204;-79
2024/01/04 14:06:24;;;;;;;0.10;0.10;;;;;;;;;;5115149;28;20472;-78
2024/01/04 14:08:52;;;;;;;0.10;0.10;;;;;;;;;;5125772;28;20210;-79
2024/01/04 14:11:18;;;;;;;0.10;0.10;;;;;;;;;;5115133;28;20256;-79
2024/01/04 14:13:45;;;;;;;0.10;0.10;;;;;;;;;;5126078;28;20240;-79
2024/01/04 14:16:12;;;;;;;0.13;0.13;;;;;;;;;;5115097;28;20281;-76
2024/01/04 14:18:38;;;;;;;0.10;0.10;;;;;;;;;;5125655;28;20233;-79
2024/01/04 14:21:06;;;;;;;0.10;0.10;;;;;;;;;;5115182;28;20234;-78
2024/01/04 14:23:34;;;;;;;0.20;0.20;;;;;;;;;;5125331;28;20269;-79
2024/01/04 14:26:01;;;;;;;0.10;0.10;;;;;;;;;;5115200;28;20486;-80
2024/01/04 14:28:28;;;;;;;0.10;0.10;;;;;;;;;;5125221;28;20202;-79
2024/01/04 14:30:54;;;;;;;0.10;0.10;;;;;;;;;;5115054;28;20285;-79
2024/01/04 14:33:21;;;;;;;0.10;0.10;;;;;;;;;;5124957;28;20290;-80
2024/01/04 14:35:48;;;;;;;0.10;0.10;;;;;;;;;;5114910;28;20238;-80
2024/01/04 14:38:15;;;;;;;0.10;0.10;;;;;;;;;;5125212;28;20235;-79
2024/01/04 14:40:43;;;;;;;0.20;0.20;;;;;;;;;;5115019;28;20237;-79